sensor_id;sensor_type;location;lat;lon;timestamp;temperature;humidity
22676;DHT22;12521;43.310;21.876;2023-06-14T00:02:29;16.4;96.0
22676;DHT22;12521;43.310;21.876;2023-06-14T00:07:06;16.4;96.0
22676;DHT22;12521;43.310;21.876;2023-06-14T00:11:43;16.3;96.0
22676;DHT22;12521;43.310;21.876;2023-06-14T00:16:20;16.3;96.0
22676;DHT22;12521;43.310;21.876;2023-06-14T00:20:57;16.2;96.0
22676;DHT22;12521;43.310;21.876;2023-06-14T00:25:34;16.2;96.0
22676;DHT22;12521;43.310;21.876;2023-06-14T00:30:12;16.2;96.0
22676;DHT22;12521;43.310;21.876;2023-06-14T00:34:50;16.2;96.0
22676;DHT22;12521;43.310;21.876;2023-06-14T00:39:26;16.1;96.0
22676;DHT22;12521;43.310;21.876;2023-06-14T00:44:04;16.1;96.0
22676;DHT22;12521;43.310;21.876;2023-06-14T00:48:41;16.0;96.0
22676;DHT22;12521;43.310;21.876;2023-06-14T00:53:19;16.0;96.0
22676;DHT22;12521;43.310;21.876;2023-06-14T00:57:56;16.0;96.0
22676;DHT22;12521;43.310;21.876;2023-06-14T01:02:36;16.0;96.0
22676;DHT22;12521;43.310;21.876;2023-06-14T01:07:33;16.0;96.0
22676;DHT22;12521;43.310;21.876;2023-06-14T01:13:03;15.9;96.0
22676;DHT22;12521;43.310;21.876;2023-06-14T01:17:59;15.8;96.0
22676;DHT22;12521;43.310;21.876;2023-06-14T01:22:51;15.8;96.0
22676;DHT22;12521;43.310;21.876;2023-06-14T01:27:29;15.8;96.0
22676;DHT22;12521;43.310;21.876;2023-06-14T01:32:08;15.8;96.0
22676;DHT22;12521;43.310;21.876;2023-06-14T01:36:48;15.8;96.0
22676;DHT22;12521;43.310;21.876;2023-06-14T01:41:32;15.8;96.0
22676;DHT22;12521;43.310;21.876;2023-06-14T01:46:15;15.8;96.0
22676;DHT22;12521;43.310;21.876;2023-06-14T01:50:53;15.8;96.0
22676;DHT22;12521;43.310;21.876;2023-06-14T01:55:30;15.8;96.0
22676;DHT22;12521;43.310;21.876;2023-06-14T02:00:08;15.9;96.0
22676;DHT22;12521;43.310;21.876;2023-06-14T02:04:49;15.9;96.0
22676;DHT22;12521;43.310;21.876;2023-06-14T02:09:27;15.8;96.0
22676;DHT22;12521;43.310;21.876;2023-06-14T02:14:03;15.8;96.0
22676;DHT22;12521;43.310;21.876;2023-06-14T02:18:40;15.8;96.0
22676;DHT22;12521;43.310;21.876;2023-06-14T02:23:17;15.8;96.0
22676;DHT22;12521;43.310;21.876;2023-06-14T02:27:54;15.7;96.0
22676;DHT22;12521;43.310;21.876;2023-06-14T02:32:31;15.7;96.0
22676;DHT22;12521;43.310;21.876;2023-06-14T02:37:08;15.7;96.0
22676;DHT22;12521;43.310;21.876;2023-06-14T02:41:44;15.6;96.0
22676;DHT22;12521;43.310;21.876;2023-06-14T02:46:21;15.6;96.0
22676;DHT22;12521;43.310;21.876;2023-06-14T02:50:57;15.6;96.0
22676;DHT22;12521;43.310;21.876;2023-06-14T02:55:34;15.6;96.0
22676;DHT22;12521;43.310;21.876;2023-06-14T03:00:12;15.7;96.0
22676;DHT22;12521;43.310;21.876;2023-06-14T03:04:50;15.7;96.0
22676;DHT22;12521;43.310;21.876;2023-06-14T03:09:26;15.8;96.0
22676;DHT22;12521;43.310;21.876;2023-06-14T03:14:03;15.8;96.0
22676;DHT22;12521;43.310;21.876;2023-06-14T03:18:39;15.8;96.0
22676;DHT22;12521;43.310;21.876;2023-06-14T03:23:15;15.8;96.0
22676;DHT22;12521;43.310;21.876;2023-06-14T03:27:51;15.7;96.0
22676;DHT22;12521;43.310;21.876;2023-06-14T03:32:28;15.7;96.0
22676;DHT22;12521;43.310;21.876;2023-06-14T03:37:05;15.7;96.0
22676;DHT22;12521;43.310;21.876;2023-06-14T03:41:41;15.6;96.0
22676;DHT22;12521;43.310;21.876;2023-06-14T03:46:18;15.6;96.0
22676;DHT22;12521;43.310;21.876;2023-06-14T03:50:54;15.6;96.0
22676;DHT22;12521;43.310;21.876;2023-06-14T03:55:31;15.6;96.0
22676;DHT22;12521;43.310;21.876;2023-06-14T04:00:10;15.6;96.0
22676;DHT22;12521;43.310;21.876;2023-06-14T04:04:50;15.6;96.0
22676;DHT22;12521;43.310;21.876;2023-06-14T04:09:26;15.8;96.0
22676;DHT22;12521;43.310;21.876;2023-06-14T04:14:03;15.8;96.0
22676;DHT22;12521;43.310;21.876;2023-06-14T04:18:41;16.0;96.0
22676;DHT22;12521;43.310;21.876;2023-06-14T04:23:18;16.0;96.0
22676;DHT22;12521;43.310;21.876;2023-06-14T04:27:55;16.0;96.0
22676;DHT22;12521;43.310;21.876;2023-06-14T04:32:32;16.0;96.0
22676;DHT22;12521;43.310;21.876;2023-06-14T04:37:09;16.0;96.0
22676;DHT22;12521;43.310;21.876;2023-06-14T04:41:45;16.1;96.0
22676;DHT22;12521;43.310;21.876;2023-06-14T04:46:22;16.1;96.0
22676;DHT22;12521;43.310;21.876;2023-06-14T04:50:59;16.2;96.0
22676;DHT22;12521;43.310;21.876;2023-06-14T04:55:35;16.2;96.0
22676;DHT22;12521;43.310;21.876;2023-06-14T05:00:12;16.3;96.0
22676;DHT22;12521;43.310;21.876;2023-06-14T05:04:51;16.3;96.0
22676;DHT22;12521;43.310;21.876;2023-06-14T05:09:27;16.6;96.0
22676;DHT22;12521;43.310;21.876;2023-06-14T05:14:04;16.6;96.0
22676;DHT22;12521;43.310;21.876;2023-06-14T05:18:41;16.8;96.0
22676;DHT22;12521;43.310;21.876;2023-06-14T05:23:18;16.8;96.0
22676;DHT22;12521;43.310;21.876;2023-06-14T05:27:54;16.9;96.0
22676;DHT22;12521;43.310;21.876;2023-06-14T05:32:31;16.9;96.0
22676;DHT22;12521;43.310;21.876;2023-06-14T05:37:07;16.9;96.0
22676;DHT22;12521;43.310;21.876;2023-06-14T05:41:44;17.0;96.0
22676;DHT22;12521;43.310;21.876;2023-06-14T05:46:21;17.0;96.0
22676;DHT22;12521;43.310;21.876;2023-06-14T05:50:59;17.2;96.0
22676;DHT22;12521;43.310;21.876;2023-06-14T05:55:35;17.2;96.0
22676;DHT22;12521;43.310;21.876;2023-06-14T06:00:14;17.5;96.0
22676;DHT22;12521;43.310;21.876;2023-06-14T06:04:52;17.5;96.0
22676;DHT22;12521;43.310;21.876;2023-06-14T06:09:29;17.8;96.0
22676;DHT22;12521;43.310;21.876;2023-06-14T06:14:06;17.8;96.0
22676;DHT22;12521;43.310;21.876;2023-06-14T06:18:43;18.1;96.0
22676;DHT22;12521;43.310;21.876;2023-06-14T06:23:19;18.1;96.0
22676;DHT22;12521;43.310;21.876;2023-06-14T06:27:56;18.5;96.0
22676;DHT22;12521;43.310;21.876;2023-06-14T06:32:34;18.5;96.0
22676;DHT22;12521;43.310;21.876;2023-06-14T06:37:11;18.5;96.0
22676;DHT22;12521;43.310;21.876;2023-06-14T06:41:49;18.8;96.0
22676;DHT22;12521;43.310;21.876;2023-06-14T06:46:25;18.8;96.0
22676;DHT22;12521;43.310;21.876;2023-06-14T06:51:02;19.1;96.0
22676;DHT22;12521;43.310;21.876;2023-06-14T06:55:39;19.1;96.0
22676;DHT22;12521;43.310;21.876;2023-06-14T07:00:17;19.4;96.0
22676;DHT22;12521;43.310;21.876;2023-06-14T07:04:56;19.4;96.0
22676;DHT22;12521;43.310;21.876;2023-06-14T07:09:33;19.6;96.0
22676;DHT22;12521;43.310;21.876;2023-06-14T07:14:10;19.6;96.0
22676;DHT22;12521;43.310;21.876;2023-06-14T07:18:47;19.8;96.0
22676;DHT22;12521;43.310;21.876;2023-06-14T07:23:23;19.8;96.0
22676;DHT22;12521;43.310;21.876;2023-06-14T07:28:00;20.0;96.0
22676;DHT22;12521;43.310;21.876;2023-06-14T07:32:37;20.0;96.0
22676;DHT22;12521;43.310;21.876;2023-06-14T07:37:14;20.0;96.0
22676;DHT22;12521;43.310;21.876;2023-06-14T07:41:51;20.3;96.0
22676;DHT22;12521;43.310;21.876;2023-06-14T07:46:27;20.3;96.0
22676;DHT22;12521;43.310;21.876;2023-06-14T07:51:04;20.4;96.0
22676;DHT22;12521;43.310;21.876;2023-06-14T07:55:41;20.4;96.0
22676;DHT22;12521;43.310;21.876;2023-06-14T08:00:19;20.5;96.0
22676;DHT22;12521;43.310;21.876;2023-06-14T08:04:57;20.5;96.0
22676;DHT22;12521;43.310;21.876;2023-06-14T08:09:35;20.8;96.0
22676;DHT22;12521;43.310;21.876;2023-06-14T08:14:12;20.8;96.0
22676;DHT22;12521;43.310;21.876;2023-06-14T08:18:49;21.0;96.0
22676;DHT22;12521;43.310;21.876;2023-06-14T08:23:25;21.0;96.0
22676;DHT22;12521;43.310;21.876;2023-06-14T08:28:02;21.3;96.0
22676;DHT22;12521;43.310;21.876;2023-06-14T08:32:38;21.3;96.0
22676;DHT22;12521;43.310;21.876;2023-06-14T08:37:14;21.3;96.0
22676;DHT22;12521;43.310;21.876;2023-06-14T08:41:52;21.6;96.0
22676;DHT22;12521;43.310;21.876;2023-06-14T08:46:33;21.6;96.0
22676;DHT22;12521;43.310;21.876;2023-06-14T08:51:13;21.9;96.0
22676;DHT22;12521;43.310;21.876;2023-06-14T08:55:55;21.9;96.0
22676;DHT22;12521;43.310;21.876;2023-06-14T09:00:31;22.2;96.0
22676;DHT22;12521;43.310;21.876;2023-06-14T09:05:09;22.2;96.0
22676;DHT22;12521;43.310;21.876;2023-06-14T09:09:47;22.5;96.0
22676;DHT22;12521;43.310;21.876;2023-06-14T09:14:24;22.5;96.0
22676;DHT22;12521;43.310;21.876;2023-06-14T09:19:01;22.9;96.0
22676;DHT22;12521;43.310;21.876;2023-06-14T09:23:39;22.9;96.0
22676;DHT22;12521;43.310;21.876;2023-06-14T09:28:27;23.3;96.0
22676;DHT22;12521;43.310;21.876;2023-06-14T09:33:04;23.3;96.0
22676;DHT22;12521;43.310;21.876;2023-06-14T09:37:41;23.3;96.0
22676;DHT22;12521;43.310;21.876;2023-06-14T09:42:19;23.7;96.0
22676;DHT22;12521;43.310;21.876;2023-06-14T09:46:56;23.7;96.0
22676;DHT22;12521;43.310;21.876;2023-06-14T09:51:34;24.0;96.0
22676;DHT22;12521;43.310;21.876;2023-06-14T09:56:29;24.0;96.0
22676;DHT22;12521;43.310;21.876;2023-06-14T10:01:18;24.2;96.0
22676;DHT22;12521;43.310;21.876;2023-06-14T10:06:05;24.2;96.0
22676;DHT22;12521;43.310;21.876;2023-06-14T10:10:46;24.4;96.0
22676;DHT22;12521;43.310;21.876;2023-06-14T10:15:38;24.4;96.0
22676;DHT22;12521;43.310;21.876;2023-06-14T10:20:58;24.7;96.0
22676;DHT22;12521;43.310;21.876;2023-06-14T10:26:01;24.7;96.0
22676;DHT22;12521;43.310;21.876;2023-06-14T10:30:38;25.0;96.0
22676;DHT22;12521;43.310;21.876;2023-06-14T10:35:16;25.0;96.0
22676;DHT22;12521;43.310;21.876;2023-06-14T10:39:53;25.3;96.0
22676;DHT22;12521;43.310;21.876;2023-06-14T10:44:37;25.3;96.0
22676;DHT22;12521;43.310;21.876;2023-06-14T10:49:39;25.6;96.0
22676;DHT22;12521;43.310;21.876;2023-06-14T10:54:27;25.6;96.0
22676;DHT22;12521;43.310;21.876;2023-06-14T10:59:03;25.9;96.0
22676;DHT22;12521;43.310;21.876;2023-06-14T11:03:51;25.9;96.0
22676;DHT22;12521;43.310;21.876;2023-06-14T11:10:05;26.4;96.0
22676;DHT22;12521;43.310;21.876;2023-06-14T11:15:13;26.4;96.0
22676;DHT22;12521;43.310;21.876;2023-06-14T11:20:07;26.8;96.0
22676;DHT22;12521;43.310;21.876;2023-06-14T11:24:45;26.8;96.0
22676;DHT22;12521;43.310;21.876;2023-06-14T11:29:22;26.6;96.0
22676;DHT22;12521;43.310;21.876;2023-06-14T11:34:00;26.6;96.0
22676;DHT22;12521;43.310;21.876;2023-06-14T11:38:37;26.4;96.0
22676;DHT22;12521;43.310;21.876;2023-06-14T11:43:14;26.4;96.0
22676;DHT22;12521;43.310;21.876;2023-06-14T11:47:50;26.4;96.0
22676;DHT22;12521;43.310;21.876;2023-06-14T11:52:27;26.7;96.0
22676;DHT22;12521;43.310;21.876;2023-06-14T11:57:06;26.7;96.0
22676;DHT22;12521;43.310;21.876;2023-06-14T12:01:44;27.0;96.0
22676;DHT22;12521;43.310;21.876;2023-06-14T12:06:28;27.0;96.0
22676;DHT22;12521;43.310;21.876;2023-06-14T12:11:12;27.6;96.0
22676;DHT22;12521;43.310;21.876;2023-06-14T12:15:54;27.6;96.0
22676;DHT22;12521;43.310;21.876;2023-06-14T12:20:32;28.1;96.0
22676;DHT22;12521;43.310;21.876;2023-06-14T12:25:23;28.1;96.0
22676;DHT22;12521;43.310;21.876;2023-06-14T12:30:09;28.0;96.0
22676;DHT22;12521;43.310;21.876;2023-06-14T12:34:48;28.0;96.0
22676;DHT22;12521;43.310;21.876;2023-06-14T12:39:25;27.9;96.0
22676;DHT22;12521;43.310;21.876;2023-06-14T12:44:02;27.9;96.0
22676;DHT22;12521;43.310;21.876;2023-06-14T12:48:39;27.8;96.0
22676;DHT22;12521;43.310;21.876;2023-06-14T12:53:16;27.8;96.0
22676;DHT22;12521;43.310;21.876;2023-06-14T12:57:52;27.8;96.0
22676;DHT22;12521;43.310;21.876;2023-06-14T13:02:29;27.6;96.0
22676;DHT22;12521;43.310;21.876;2023-06-14T13:07:06;27.6;96.0
22676;DHT22;12521;43.310;21.876;2023-06-14T13:11:42;27.2;96.0
22676;DHT22;12521;43.310;21.876;2023-06-14T13:16:19;27.2;96.0
22676;DHT22;12521;43.310;21.876;2023-06-14T13:20:56;26.7;96.0
22676;DHT22;12521;43.310;21.876;2023-06-14T13:25:33;26.7;96.0
22676;DHT22;12521;43.310;21.876;2023-06-14T13:30:12;26.4;96.0
22676;DHT22;12521;43.310;21.876;2023-06-14T13:34:49;26.4;96.0
22676;DHT22;12521;43.310;21.876;2023-06-14T13:39:26;26.2;96.0
22676;DHT22;12521;43.310;21.876;2023-06-14T13:44:03;26.2;96.0
22676;DHT22;12521;43.310;21.876;2023-06-14T13:48:40;26.0;96.0
22676;DHT22;12521;43.310;21.876;2023-06-14T13:53:16;26.0;96.0
22676;DHT22;12521;43.310;21.876;2023-06-14T13:57:52;26.0;96.0
22676;DHT22;12521;43.310;21.876;2023-06-14T14:02:29;25.7;96.0
22676;DHT22;12521;43.310;21.876;2023-06-14T14:07:07;25.7;96.0
22676;DHT22;12521;43.310;21.876;2023-06-14T14:11:44;25.2;96.0
22676;DHT22;12521;43.310;21.876;2023-06-14T14:16:20;25.2;96.0
22676;DHT22;12521;43.310;21.876;2023-06-14T14:20:57;24.8;96.0
22676;DHT22;12521;43.310;21.876;2023-06-14T14:25:34;24.8;96.0
22676;DHT22;12521;43.310;21.876;2023-06-14T14:30:12;24.3;96.0
22676;DHT22;12521;43.310;21.876;2023-06-14T14:34:50;24.3;96.0
22676;DHT22;12521;43.310;21.876;2023-06-14T14:39:27;23.8;96.0
22676;DHT22;12521;43.310;21.876;2023-06-14T14:44:05;23.8;96.0
22676;DHT22;12521;43.310;21.876;2023-06-14T14:48:42;23.1;96.0
22676;DHT22;12521;43.310;21.876;2023-06-14T14:53:19;23.1;96.0
22676;DHT22;12521;43.310;21.876;2023-06-14T14:57:56;23.1;96.0
22676;DHT22;12521;43.310;21.876;2023-06-14T15:02:32;22.4;96.0
22676;DHT22;12521;43.310;21.876;2023-06-14T15:07:09;22.4;96.0
22676;DHT22;12521;43.310;21.876;2023-06-14T15:11:46;22.4;96.0
22676;DHT22;12521;43.310;21.876;2023-06-14T15:16:23;22.4;96.0
22676;DHT22;12521;43.310;21.876;2023-06-14T15:21:00;22.3;96.0
22676;DHT22;12521;43.310;21.876;2023-06-14T15:25:36;22.3;96.0
22676;DHT22;12521;43.310;21.876;2023-06-14T15:30:13;22.6;96.0
22676;DHT22;12521;43.310;21.876;2023-06-14T15:34:50;22.6;96.0
22676;DHT22;12521;43.310;21.876;2023-06-14T15:39:26;22.8;96.0
22676;DHT22;12521;43.310;21.876;2023-06-14T15:44:05;22.8;96.0
22676;DHT22;12521;43.310;21.876;2023-06-14T15:48:46;22.6;96.0
22676;DHT22;12521;43.310;21.876;2023-06-14T15:53:23;22.6;96.0
22676;DHT22;12521;43.310;21.876;2023-06-14T15:57:59;22.6;96.0
22676;DHT22;12521;43.310;21.876;2023-06-14T16:02:37;22.4;96.0
22676;DHT22;12521;43.310;21.876;2023-06-14T16:07:14;22.4;96.0
22676;DHT22;12521;43.310;21.876;2023-06-14T16:11:50;22.2;96.0
22676;DHT22;12521;43.310;21.876;2023-06-14T16:16:27;22.2;96.0
22676;DHT22;12521;43.310;21.876;2023-06-14T16:21:04;22.1;96.0
22676;DHT22;12521;43.310;21.876;2023-06-14T16:25:40;22.1;96.0
22676;DHT22;12521;43.310;21.876;2023-06-14T16:30:17;22.2;96.0
22676;DHT22;12521;43.310;21.876;2023-06-14T16:34:54;22.2;96.0
22676;DHT22;12521;43.310;21.876;2023-06-14T16:39:30;22.2;96.0
22676;DHT22;12521;43.310;21.876;2023-06-14T16:44:07;22.2;96.0
22676;DHT22;12521;43.310;21.876;2023-06-14T16:48:43;22.2;96.0
22676;DHT22;12521;43.310;21.876;2023-06-14T16:53:19;22.2;96.0
22676;DHT22;12521;43.310;21.876;2023-06-14T16:57:57;22.2;96.0
22676;DHT22;12521;43.310;21.876;2023-06-14T17:02:33;22.2;96.0
22676;DHT22;12521;43.310;21.876;2023-06-14T17:07:09;22.2;96.0
22676;DHT22;12521;43.310;21.876;2023-06-14T17:11:46;22.2;96.0
22676;DHT22;12521;43.310;21.876;2023-06-14T17:16:22;22.2;96.0
22676;DHT22;12521;43.310;21.876;2023-06-14T17:20:59;22.2;96.0
22676;DHT22;12521;43.310;21.876;2023-06-14T17:25:36;22.2;96.0
22676;DHT22;12521;43.310;21.876;2023-06-14T17:30:14;22.0;96.0
22676;DHT22;12521;43.310;21.876;2023-06-14T17:34:51;22.0;96.0
22676;DHT22;12521;43.310;21.876;2023-06-14T17:39:28;21.7;96.0
22676;DHT22;12521;43.310;21.876;2023-06-14T17:44:04;21.7;96.0
22676;DHT22;12521;43.310;21.876;2023-06-14T17:48:41;21.5;96.0
22676;DHT22;12521;43.310;21.876;2023-06-14T17:53:17;21.5;96.0
22676;DHT22;12521;43.310;21.876;2023-06-14T17:57:54;21.5;96.0
22676;DHT22;12521;43.310;21.876;2023-06-14T18:02:30;21.4;96.0
22676;DHT22;12521;43.310;21.876;2023-06-14T18:07:07;21.4;96.0
22676;DHT22;12521;43.310;21.876;2023-06-14T18:11:44;21.3;96.0
22676;DHT22;12521;43.310;21.876;2023-06-14T18:16:20;21.3;96.0
22676;DHT22;12521;43.310;21.876;2023-06-14T18:20:57;21.2;96.0
22676;DHT22;12521;43.310;21.876;2023-06-14T18:25:33;21.2;96.0
22676;DHT22;12521;43.310;21.876;2023-06-14T18:30:12;21.0;96.0
22676;DHT22;12521;43.310;21.876;2023-06-14T18:34:49;21.0;96.0
22676;DHT22;12521;43.310;21.876;2023-06-14T18:39:26;20.7;96.0
22676;DHT22;12521;43.310;21.876;2023-06-14T18:44:03;20.7;96.0
22676;DHT22;12521;43.310;21.876;2023-06-14T18:48:39;20.6;96.0
22676;DHT22;12521;43.310;21.876;2023-06-14T18:53:16;20.6;96.0
22676;DHT22;12521;43.310;21.876;2023-06-14T18:57:52;20.6;96.0
22676;DHT22;12521;43.310;21.876;2023-06-14T19:02:29;20.5;96.0
22676;DHT22;12521;43.310;21.876;2023-06-14T19:07:05;20.5;96.0
22676;DHT22;12521;43.310;21.876;2023-06-14T19:11:42;20.4;96.0
22676;DHT22;12521;43.310;21.876;2023-06-14T19:16:18;20.4;96.0
22676;DHT22;12521;43.310;21.876;2023-06-14T19:20:54;20.4;96.0
22676;DHT22;12521;43.310;21.876;2023-06-14T19:25:30;20.4;96.0
22676;DHT22;12521;43.310;21.876;2023-06-14T19:30:08;20.3;96.0
22676;DHT22;12521;43.310;21.876;2023-06-14T19:34:45;20.3;96.0
22676;DHT22;12521;43.310;21.876;2023-06-14T19:39:21;20.2;96.0
22676;DHT22;12521;43.310;21.876;2023-06-14T19:43:58;20.2;96.0
22676;DHT22;12521;43.310;21.876;2023-06-14T19:48:34;20.1;96.0
22676;DHT22;12521;43.310;21.876;2023-06-14T19:53:10;20.1;96.0
22676;DHT22;12521;43.310;21.876;2023-06-14T19:57:47;20.1;96.0
22676;DHT22;12521;43.310;21.876;2023-06-14T20:02:23;20.0;96.0
22676;DHT22;12521;43.310;21.876;2023-06-14T20:07:00;20.0;96.0
22676;DHT22;12521;43.310;21.876;2023-06-14T20:11:37;19.9;96.0
22676;DHT22;12521;43.310;21.876;2023-06-14T20:16:15;19.9;96.0
22676;DHT22;12521;43.310;21.876;2023-06-14T20:20:52;19.8;96.0
22676;DHT22;12521;43.310;21.876;2023-06-14T20:25:28;19.8;96.0
22676;DHT22;12521;43.310;21.876;2023-06-14T20:30:07;19.8;96.0
22676;DHT22;12521;43.310;21.876;2023-06-14T20:34:46;19.8;96.0
22676;DHT22;12521;43.310;21.876;2023-06-14T20:39:23;19.7;96.0
22676;DHT22;12521;43.310;21.876;2023-06-14T20:44:00;19.7;96.0
22676;DHT22;12521;43.310;21.876;2023-06-14T20:48:37;19.7;96.0
22676;DHT22;12521;43.310;21.876;2023-06-14T20:53:13;19.7;96.0
22676;DHT22;12521;43.310;21.876;2023-06-14T20:57:50;19.7;96.0
22676;DHT22;12521;43.310;21.876;2023-06-14T21:02:27;19.7;96.0
22676;DHT22;12521;43.310;21.876;2023-06-14T21:07:04;19.7;96.0
22676;DHT22;12521;43.310;21.876;2023-06-14T21:11:41;19.6;96.0
22676;DHT22;12521;43.310;21.876;2023-06-14T21:16:17;19.6;96.0
22676;DHT22;12521;43.310;21.876;2023-06-14T21:20:54;19.6;96.0
22676;DHT22;12521;43.310;21.876;2023-06-14T21:25:30;19.6;96.0
22676;DHT22;12521;43.310;21.876;2023-06-14T21:30:08;19.5;96.0
22676;DHT22;12521;43.310;21.876;2023-06-14T21:34:51;19.5;96.0
22676;DHT22;12521;43.310;21.876;2023-06-14T21:39:27;19.4;96.0
22676;DHT22;12521;43.310;21.876;2023-06-14T21:44:04;19.4;96.0
22676;DHT22;12521;43.310;21.876;2023-06-14T21:48:41;19.4;96.0
22676;DHT22;12521;43.310;21.876;2023-06-14T21:53:17;19.4;96.0
22676;DHT22;12521;43.310;21.876;2023-06-14T21:57:53;19.4;96.0
22676;DHT22;12521;43.310;21.876;2023-06-14T22:02:30;19.3;96.0
22676;DHT22;12521;43.310;21.876;2023-06-14T22:07:06;19.3;96.0
22676;DHT22;12521;43.310;21.876;2023-06-14T22:11:44;19.3;96.0
22676;DHT22;12521;43.310;21.876;2023-06-14T22:16:21;19.3;96.0
22676;DHT22;12521;43.310;21.876;2023-06-14T22:20:57;19.3;96.0
22676;DHT22;12521;43.310;21.876;2023-06-14T22:25:34;19.3;96.0
22676;DHT22;12521;43.310;21.876;2023-06-14T22:30:13;19.3;96.0
22676;DHT22;12521;43.310;21.876;2023-06-14T22:34:52;19.3;96.0
22676;DHT22;12521;43.310;21.876;2023-06-14T22:39:29;19.3;96.0
22676;DHT22;12521;43.310;21.876;2023-06-14T22:44:06;19.3;96.0
22676;DHT22;12521;43.310;21.876;2023-06-14T22:48:42;19.3;96.0
22676;DHT22;12521;43.310;21.876;2023-06-14T22:53:19;19.3;96.0
22676;DHT22;12521;43.310;21.876;2023-06-14T22:57:55;19.3;96.0
22676;DHT22;12521;43.310;21.876;2023-06-14T23:02:32;19.3;96.0
22676;DHT22;12521;43.310;21.876;2023-06-14T23:07:09;19.3;96.0
22676;DHT22;12521;43.310;21.876;2023-06-14T23:11:46;19.2;96.0
22676;DHT22;12521;43.310;21.876;2023-06-14T23:16:23;19.2;96.0
22676;DHT22;12521;43.310;21.876;2023-06-14T23:21:00;19.1;96.0
22676;DHT22;12521;43.310;21.876;2023-06-14T23:25:37;19.1;96.0
22676;DHT22;12521;43.310;21.876;2023-06-14T23:30:14;19.0;96.0
22676;DHT22;12521;43.310;21.876;2023-06-14T23:34:50;19.0;96.0
22676;DHT22;12521;43.310;21.876;2023-06-14T23:39:27;19.0;96.0
22676;DHT22;12521;43.310;21.876;2023-06-14T23:44:04;19.0;96.0
22676;DHT22;12521;43.310;21.876;2023-06-14T23:48:40;19.0;96.0
22676;DHT22;12521;43.310;21.876;2023-06-14T23:53:17;19.0;96.0
22676;DHT22;12521;43.310;21.876;2023-06-14T23:57:53;19.0;96.0
